createdAt,value
2023-09-20T00:01:27.360Z,69.70
2023-09-20T00:03:53.598Z,69.27
2023-09-20T00:06:19.766Z,69.03
2023-09-20T00:08:45.926Z,69.55
2023-09-20T00:11:12.158Z,69.94
2023-09-20T00:13:38.380Z,70.33
2023-09-20T00:16:04.638Z,70.88
2023-09-20T00:18:30.803Z,71.10
2023-09-20T00:20:56.978Z,71.25
2023-09-20T00:23:23.222Z,71.59
2023-09-20T00:25:49.409Z,71.58
2023-09-20T00:28:15.561Z,71.72
2023-09-20T00:30:41.751Z,72.11
2023-09-20T00:33:07.963Z,71.61
2023-09-20T00:35:34.176Z,71.11
2023-09-20T00:38:00.395Z,71.23
2023-09-20T00:40:26.579Z,72.61
2023-09-20T00:42:52.855Z,72.19
2023-09-20T00:45:19.033Z,71.61
2023-09-20T00:47:45.233Z,71.28
2023-09-20T00:50:11.438Z,70.40
2023-09-20T00:52:37.630Z,71.61
2023-09-20T00:55:04.122Z,72.02
2023-09-20T00:57:30.362Z,71.00
2023-09-20T00:59:56.537Z,69.80
2023-09-20T01:02:22.800Z,69.53
2023-09-20T01:04:49.096Z,70.36
2023-09-20T01:07:15.263Z,71.16
2023-09-20T01:09:41.453Z,70.82
2023-09-20T01:12:07.631Z,70.43
2023-09-20T01:14:33.824Z,71.41
2023-09-20T01:17:00.146Z,71.60
2023-09-20T01:19:26.391Z,71.78
2023-09-20T01:21:52.561Z,70.89
2023-09-20T01:24:18.742Z,70.85
2023-09-20T01:26:44.894Z,71.20
2023-09-20T01:29:11.195Z,70.83
2023-09-20T01:31:37.468Z,71.81
2023-09-20T01:34:03.647Z,71.98
2023-09-20T01:36:29.804Z,72.26
2023-09-20T01:38:55.993Z,72.13
2023-09-20T01:41:22.194Z,72.00
2023-09-20T01:43:48.368Z,71.09
2023-09-20T01:46:14.536Z,70.97
2023-09-20T01:48:41.018Z,70.88
2023-09-20T01:51:07.413Z,71.58
2023-09-20T01:53:33.598Z,71.03
2023-09-20T01:55:59.860Z,70.34
2023-09-20T01:58:26.043Z,70.36
2023-09-20T02:00:52.507Z,70.54
2023-09-20T02:03:19.803Z,71.80
2023-09-20T02:05:47.191Z,72.37
2023-09-20T02:08:13.385Z,72.39
2023-09-20T02:10:39.648Z,73.32
2023-09-20T02:13:05.817Z,72.20
2023-09-20T02:15:32.010Z,71.19
2023-09-20T02:17:58.179Z,69.93
2023-09-20T02:20:24.418Z,70.84
2023-09-20T02:22:50.606Z,69.98
2023-09-20T02:25:16.779Z,69.68
2023-09-20T02:27:42.944Z,69.63
2023-09-20T02:30:09.114Z,69.45
2023-09-20T02:32:35.374Z,70.04
2023-09-20T02:35:01.635Z,70.79
2023-09-20T02:37:27.819Z,71.52
2023-09-20T02:39:54.096Z,71.85
2023-09-20T02:42:20.262Z,72.30
2023-09-20T02:44:46.441Z,72.04
2023-09-20T02:47:12.654Z,72.14
2023-09-20T02:49:38.816Z,71.18
2023-09-20T02:52:04.989Z,70.47
2023-09-20T02:54:31.149Z,69.76
2023-09-20T02:56:57.313Z,69.83
2023-09-20T02:59:23.507Z,70.11
2023-09-20T03:01:49.748Z,70.51
2023-09-20T03:04:16.009Z,70.57
2023-09-20T03:06:42.247Z,70.72
2023-09-20T03:09:08.418Z,70.46
2023-09-20T03:11:34.611Z,70.34
2023-09-20T03:14:00.839Z,70.75
2023-09-20T03:16:27.038Z,70.49
2023-09-20T03:18:53.255Z,70.70
2023-09-20T03:21:19.546Z,71.91
2023-09-20T03:23:45.801Z,71.99
2023-09-20T03:26:11.979Z,71.79
2023-09-20T03:28:38.169Z,71.50
2023-09-20T03:31:04.352Z,71.08
2023-09-20T03:33:30.525Z,70.87
2023-09-20T03:35:56.727Z,70.79
2023-09-20T03:38:22.977Z,70.62
2023-09-20T03:40:49.219Z,70.22
2023-09-20T03:43:15.430Z,69.63
2023-09-20T03:45:41.629Z,69.42
2023-09-20T03:48:07.881Z,70.47
2023-09-20T03:50:34.202Z,71.79
2023-09-20T03:53:00.423Z,72.34
2023-09-20T03:55:26.610Z,72.00
2023-09-20T03:57:52.814Z,71.90
2023-09-20T04:00:18.973Z,72.88
2023-09-20T04:02:45.268Z,72.29
2023-09-20T04:05:11.546Z,72.04
2023-09-20T04:07:37.733Z,72.11
2023-09-20T04:10:06.059Z,72.83
2023-09-20T04:12:32.330Z,72.80
2023-09-20T04:14:58.484Z,72.80
2023-09-20T04:17:24.657Z,72.12
2023-09-20T04:19:50.901Z,71.30
2023-09-20T04:22:17.098Z,71.57
2023-09-20T04:24:43.265Z,70.79
2023-09-20T04:27:09.454Z,70.77
2023-09-20T04:29:35.635Z,71.13
2023-09-20T04:32:01.861Z,71.38
2023-09-20T04:34:28.038Z,71.86
2023-09-20T04:36:54.201Z,71.86
2023-09-20T04:39:20.362Z,72.07
2023-09-20T04:41:46.509Z,73.38
2023-09-20T04:44:12.726Z,72.49
2023-09-20T04:46:38.897Z,72.15
2023-09-20T04:49:05.079Z,72.49
2023-09-20T04:51:31.236Z,73.26
2023-09-20T04:53:57.387Z,72.40
2023-09-20T04:56:23.570Z,72.10
2023-09-20T04:58:49.749Z,71.45
2023-09-20T05:01:16.050Z,73.11
2023-09-20T05:03:42.400Z,73.72
2023-09-20T05:06:08.713Z,72.64
2023-09-20T05:08:34.957Z,72.45
2023-09-20T05:11:01.335Z,71.60
2023-09-20T05:13:27.514Z,70.76
2023-09-20T05:15:53.722Z,70.49
2023-09-20T05:18:19.979Z,71.19
2023-09-20T05:20:46.352Z,72.26
2023-09-20T05:23:12.647Z,71.51
2023-09-20T05:25:38.853Z,70.60
2023-09-20T05:28:05.028Z,70.28
2023-09-20T05:30:31.207Z,70.41
2023-09-20T05:32:57.434Z,71.86
2023-09-20T05:35:23.802Z,71.07
2023-09-20T05:37:50.016Z,71.01
2023-09-20T05:40:16.177Z,71.29
2023-09-20T05:42:42.335Z,71.14
2023-09-20T05:45:08.537Z,72.30
2023-09-20T05:47:34.805Z,71.89
2023-09-20T05:50:01.167Z,71.91
2023-09-20T05:52:27.407Z,71.98
2023-09-20T05:54:53.756Z,71.38
2023-09-20T05:57:19.951Z,70.60
2023-09-20T05:59:46.184Z,69.94
2023-09-20T06:02:12.419Z,69.84
2023-09-20T06:04:38.613Z,69.58
2023-09-20T06:07:04.762Z,69.51
2023-09-20T06:09:30.923Z,70.33
2023-09-20T06:11:57.115Z,71.48
2023-09-20T06:14:23.386Z,71.20
2023-09-20T06:16:49.633Z,71.70
2023-09-20T06:19:16.045Z,71.36
2023-09-20T06:21:42.586Z,70.07
2023-09-20T06:24:08.796Z,69.62
2023-09-20T06:26:34.992Z,69.70
2023-09-20T06:29:01.240Z,69.92
2023-09-20T06:31:27.452Z,69.89
2023-09-20T06:33:53.700Z,69.51
2023-09-20T06:36:19.905Z,68.53
2023-09-20T06:38:46.099Z,68.81
2023-09-20T06:41:12.351Z,67.10
2023-09-20T06:43:38.565Z,67.53
2023-09-20T06:46:04.781Z,68.21
2023-09-20T06:48:31.043Z,68.78
2023-09-20T06:50:57.264Z,69.09
2023-09-20T06:53:23.462Z,66.88
2023-09-20T06:55:49.712Z,67.12
2023-09-20T06:58:20.609Z,67.71
2023-09-20T07:00:47.300Z,67.21
2023-09-20T07:03:13.608Z,67.75
2023-09-20T07:05:39.880Z,67.65
2023-09-20T07:08:06.235Z,67.64
2023-09-20T07:10:35.484Z,68.68
2023-09-20T07:13:01.660Z,68.00
2023-09-20T07:15:27.807Z,67.69
2023-09-20T07:17:54.040Z,67.94
2023-09-20T07:20:20.337Z,67.71
2023-09-20T07:22:46.543Z,68.15
2023-09-20T07:25:12.706Z,67.03
2023-09-20T07:27:38.876Z,66.23
2023-09-20T07:30:05.045Z,66.51
2023-09-20T07:32:31.304Z,64.17
2023-09-20T07:34:57.612Z,63.80
2023-09-20T07:37:23.766Z,64.25
2023-09-20T07:39:50.038Z,63.89
2023-09-20T07:42:16.280Z,62.64
2023-09-20T07:44:42.508Z,62.35
2023-09-20T07:47:08.792Z,61.35
2023-09-20T07:49:35.104Z,62.10
2023-09-20T07:52:01.283Z,60.42
2023-09-20T07:54:27.455Z,60.18
2023-09-20T07:56:53.887Z,58.69
2023-09-20T07:59:20.203Z,58.66
2023-09-20T08:01:46.426Z,58.59
2023-09-20T08:04:12.680Z,57.22
2023-09-20T08:06:38.845Z,55.65
2023-09-20T08:09:05.085Z,56.76
2023-09-20T08:11:31.296Z,57.07
2023-09-20T08:13:57.515Z,57.52
2023-09-20T08:16:26.818Z,56.52
2023-09-20T08:18:57.542Z,55.85
2023-09-20T08:21:23.793Z,56.26
2023-09-20T08:23:50.054Z,57.04
2023-09-20T08:26:16.336Z,54.93
2023-09-20T08:28:42.744Z,54.38
2023-09-20T08:31:09.289Z,54.20
2023-09-20T08:33:35.526Z,54.63
2023-09-20T08:36:01.712Z,54.13
2023-09-20T08:38:27.957Z,56.07
2023-09-20T08:40:54.191Z,54.47
2023-09-20T08:43:20.371Z,53.53
2023-09-20T08:45:46.531Z,52.79
2023-09-20T08:48:12.773Z,51.45
2023-09-20T08:50:39.061Z,52.14
2023-09-20T08:53:05.233Z,52.56
2023-09-20T08:55:31.390Z,51.84
2023-09-20T08:57:57.575Z,50.60
2023-09-20T09:00:23.951Z,54.06
2023-09-20T09:02:50.317Z,52.48
2023-09-20T09:05:16.596Z,52.83
2023-09-20T09:07:42.784Z,51.77
2023-09-20T09:10:08.959Z,51.62
2023-09-20T09:12:35.737Z,50.63
2023-09-20T09:15:01.928Z,48.79
2023-09-20T09:17:28.225Z,49.47
2023-09-20T09:19:54.420Z,48.73
2023-09-20T09:22:20.617Z,47.32
2023-09-20T09:24:46.786Z,45.69
2023-09-20T09:27:12.959Z,46.30
2023-09-20T09:29:39.176Z,46.37
2023-09-20T09:32:05.471Z,46.17
2023-09-20T09:34:31.784Z,46.85
2023-09-20T09:36:57.993Z,45.75
2023-09-20T09:39:34.250Z,45.67
2023-09-20T09:42:01.350Z,46.30
2023-09-20T09:44:27.521Z,45.27
2023-09-20T09:46:53.741Z,45.09
2023-09-20T09:49:19.922Z,46.02
2023-09-20T09:51:46.086Z,47.50
2023-09-20T09:54:12.272Z,48.16
2023-09-20T09:56:38.475Z,47.30
2023-09-20T09:59:04.672Z,47.03
2023-09-20T10:01:30.997Z,46.42
2023-09-20T10:03:57.464Z,51.03
2023-09-20T10:06:23.701Z,51.24
2023-09-20T10:08:49.895Z,51.71
2023-09-20T10:11:16.126Z,49.80
2023-09-20T10:13:42.321Z,49.62
2023-09-20T10:16:08.530Z,50.56
2023-09-20T10:18:34.772Z,48.60
2023-09-20T10:21:00.984Z,46.87
2023-09-20T10:23:27.284Z,47.81
2023-09-20T10:25:53.490Z,47.95
2023-09-20T10:28:19.654Z,47.81
2023-09-20T10:30:45.819Z,45.63
2023-09-20T10:33:12.090Z,46.56
2023-09-20T10:35:38.351Z,45.55
2023-09-20T10:38:04.503Z,44.85
2023-09-20T10:40:30.680Z,44.23
2023-09-20T10:42:56.869Z,45.94
2023-09-20T10:45:23.070Z,45.01
2023-09-20T10:47:49.317Z,46.50
2023-09-20T10:50:15.581Z,45.33
2023-09-20T10:52:41.858Z,44.74
2023-09-20T10:55:08.022Z,43.07
2023-09-20T10:57:34.204Z,43.62
2023-09-20T11:00:00.466Z,43.62
2023-09-20T11:02:26.690Z,42.95
2023-09-20T11:04:52.896Z,43.31
2023-09-20T11:07:19.134Z,44.73
2023-09-20T11:09:45.288Z,45.34
2023-09-20T11:12:11.445Z,44.42
2023-09-20T11:14:40.169Z,42.42
2023-09-20T11:17:07.744Z,44.06
2023-09-20T11:19:33.928Z,42.58
2023-09-20T11:22:00.114Z,42.47
2023-09-20T11:24:26.270Z,40.89
2023-09-20T11:26:52.476Z,40.25
2023-09-20T11:29:18.704Z,40.00
2023-09-20T11:31:44.882Z,38.95
2023-09-20T11:34:11.078Z,40.90
2023-09-20T11:36:37.246Z,40.82
2023-09-20T11:39:03.405Z,42.18
2023-09-20T11:41:29.571Z,42.43
2023-09-20T11:43:55.748Z,43.10
2023-09-20T11:46:21.982Z,44.19
2023-09-20T11:48:48.218Z,44.93
2023-09-20T11:51:14.414Z,46.19
2023-09-20T11:53:40.594Z,44.16
2023-09-20T11:56:06.792Z,43.80
2023-09-20T11:58:32.959Z,45.09
2023-09-20T12:00:59.184Z,43.42
2023-09-20T12:03:25.582Z,43.69
2023-09-20T12:05:51.845Z,45.36
2023-09-20T12:08:18.139Z,43.36
2023-09-20T12:10:44.414Z,43.23
2023-09-20T12:13:10.588Z,45.81
2023-09-20T12:15:36.733Z,45.81
2023-09-20T12:18:03.035Z,44.60
2023-09-20T12:20:29.634Z,45.27
2023-09-20T12:22:55.924Z,45.74
2023-09-20T12:25:22.163Z,46.20
2023-09-20T12:27:48.424Z,44.05
2023-09-20T12:30:14.606Z,47.66
2023-09-20T12:32:40.826Z,47.14
2023-09-20T12:35:07.061Z,46.72
2023-09-20T12:37:33.213Z,47.43
2023-09-20T12:39:59.480Z,47.08
2023-09-20T12:42:25.640Z,46.34
2023-09-20T12:44:51.850Z,45.96
2023-09-20T12:47:18.115Z,46.46
2023-09-20T12:49:44.359Z,45.88
2023-09-20T12:52:10.527Z,43.92
2023-09-20T12:54:36.695Z,45.16
2023-09-20T12:57:02.882Z,45.81
2023-09-20T12:59:29.219Z,46.39
2023-09-20T13:01:55.437Z,46.45
2023-09-20T13:04:21.639Z,44.14
2023-09-20T13:06:47.868Z,44.77
2023-09-20T13:09:14.032Z,45.33
2023-09-20T13:11:40.241Z,43.13
2023-09-20T13:14:06.453Z,42.06
2023-09-20T13:16:32.648Z,41.07
2023-09-20T13:18:58.840Z,39.08
2023-09-20T13:21:25.010Z,40.32
2023-09-20T13:23:51.195Z,39.83
2023-09-20T13:26:17.448Z,39.34
2023-09-20T13:28:43.619Z,39.98
2023-09-20T13:31:09.808Z,43.18
2023-09-20T13:33:36.049Z,44.93
2023-09-20T13:36:02.323Z,46.12
2023-09-20T13:38:28.604Z,46.62
2023-09-20T13:40:54.782Z,47.93
2023-09-20T13:43:20.953Z,47.37
2023-09-20T13:45:47.203Z,47.56
2023-09-20T13:48:13.682Z,46.38
2023-09-20T13:50:40.159Z,46.64
2023-09-20T13:53:06.355Z,46.82
2023-09-20T13:55:33.114Z,47.13
2023-09-20T13:57:59.358Z,49.64
2023-09-20T14:00:25.565Z,50.89
2023-09-20T14:02:51.773Z,51.07
2023-09-20T14:05:18.051Z,51.96
2023-09-20T14:07:44.226Z,50.94
2023-09-20T14:10:10.389Z,49.46
2023-09-20T14:12:36.552Z,48.00
2023-09-20T14:15:02.700Z,47.02
2023-09-20T14:17:28.896Z,48.30
2023-09-20T14:19:55.091Z,48.28
2023-09-20T14:22:21.256Z,48.56
2023-09-20T14:24:47.431Z,48.87
2023-09-20T14:27:13.656Z,47.12
2023-09-20T14:29:39.866Z,48.00
2023-09-20T14:32:06.067Z,46.92
2023-09-20T14:34:32.218Z,47.28
2023-09-20T14:36:58.390Z,46.87
2023-09-20T14:39:24.547Z,44.98
2023-09-20T14:41:50.787Z,45.39
2023-09-20T14:44:17.107Z,44.90
2023-09-20T14:46:43.346Z,43.99
2023-09-20T14:49:09.516Z,44.62
2023-09-20T14:51:35.684Z,45.33
2023-09-20T14:54:01.886Z,45.11
2023-09-20T14:56:29.072Z,45.23
2023-09-20T14:58:56.486Z,45.16
2023-09-20T15:01:22.648Z,45.59
2023-09-20T15:03:48.887Z,46.06
2023-09-20T15:06:15.136Z,45.51
2023-09-20T15:08:41.391Z,45.61
2023-09-20T15:11:07.616Z,45.28
2023-09-20T15:13:33.799Z,44.98
2023-09-20T15:15:59.980Z,44.39
2023-09-20T15:18:26.271Z,44.75
2023-09-20T15:20:52.614Z,43.86
2023-09-20T15:23:18.832Z,42.85
2023-09-20T15:25:44.987Z,42.45
2023-09-20T15:28:11.144Z,41.94
2023-09-20T15:30:37.306Z,42.81
2023-09-20T15:33:03.634Z,41.55
2023-09-20T15:35:29.879Z,41.34
2023-09-20T15:37:56.146Z,41.78
2023-09-20T15:40:22.305Z,42.94
2023-09-20T15:42:48.671Z,42.83
2023-09-20T15:45:14.910Z,43.39
2023-09-20T15:47:41.314Z,44.58
2023-09-20T15:50:07.604Z,46.35
2023-09-20T15:52:33.772Z,45.06
2023-09-20T15:54:59.919Z,45.04
2023-09-20T15:57:26.084Z,47.39
2023-09-20T15:59:52.260Z,48.24
2023-09-20T16:02:18.566Z,48.49
2023-09-20T16:04:44.746Z,48.11
2023-09-20T16:07:10.916Z,48.55
2023-09-20T16:09:37.068Z,48.71
2023-09-20T16:12:03.562Z,49.59
2023-09-20T16:14:29.921Z,50.52
2023-09-20T16:16:56.157Z,51.60
2023-09-20T16:19:22.709Z,51.63
2023-09-20T16:21:48.952Z,50.89
2023-09-20T16:24:15.125Z,50.20
2023-09-20T16:26:41.346Z,49.62
2023-09-20T16:29:07.788Z,50.76
2023-09-20T16:31:33.997Z,51.34
2023-09-20T16:34:01.510Z,51.57
2023-09-20T16:36:27.860Z,51.44
2023-09-20T16:38:54.061Z,51.60
2023-09-20T16:41:20.329Z,51.60
2023-09-20T16:43:46.521Z,52.15
2023-09-20T16:46:12.791Z,53.40
2023-09-20T16:48:39.104Z,53.23
2023-09-20T16:51:05.436Z,53.70
2023-09-20T16:53:31.733Z,53.66
2023-09-20T16:55:57.918Z,53.36
2023-09-20T16:58:24.092Z,53.72
2023-09-20T17:00:50.273Z,53.62
2023-09-20T17:03:16.635Z,52.67
2023-09-20T17:05:42.986Z,53.09
2023-09-20T17:08:09.135Z,53.40
2023-09-20T17:10:35.290Z,54.49
2023-09-20T17:13:01.462Z,55.27
2023-09-20T17:15:27.656Z,55.88
2023-09-20T17:17:53.914Z,55.18
2023-09-20T17:20:20.093Z,55.81
2023-09-20T17:22:46.269Z,55.56
2023-09-20T17:25:12.428Z,55.95
2023-09-20T17:27:38.597Z,55.57
2023-09-20T17:30:04.835Z,56.34
2023-09-20T17:32:31.092Z,56.26
2023-09-20T17:34:57.296Z,56.10
2023-09-20T17:37:23.443Z,56.02
2023-09-20T17:39:49.629Z,57.13
2023-09-20T17:42:15.845Z,57.07
2023-09-20T17:44:42.101Z,57.27
2023-09-20T17:47:08.270Z,57.67
2023-09-20T17:49:34.441Z,57.47
2023-09-20T17:52:02.212Z,57.01
2023-09-20T17:54:30.637Z,57.44
2023-09-20T17:56:56.836Z,57.71
2023-09-20T17:59:23.094Z,58.08
2023-09-20T18:01:49.283Z,57.87
2023-09-20T18:04:15.496Z,58.00
2023-09-20T18:06:41.718Z,57.92
2023-09-20T18:09:07.875Z,58.27
2023-09-20T18:11:34.247Z,58.90
2023-09-20T18:14:00.426Z,58.68
2023-09-20T18:16:27.634Z,58.61
2023-09-20T18:18:53.962Z,59.26
2023-09-20T18:21:20.182Z,59.68
2023-09-20T18:23:46.440Z,59.46
2023-09-20T18:26:12.620Z,61.03
2023-09-20T18:28:38.774Z,59.09
2023-09-20T18:31:04.947Z,58.88
2023-09-20T18:33:31.212Z,58.84
2023-09-20T18:35:57.420Z,58.99
2023-09-20T18:38:23.712Z,59.12
2023-09-20T18:40:50.076Z,59.08
2023-09-20T18:43:16.224Z,59.66
2023-09-20T18:45:42.399Z,59.77
2023-09-20T18:48:08.709Z,60.00
2023-09-20T18:50:35.207Z,61.74
2023-09-20T18:53:01.366Z,61.85
2023-09-20T18:55:27.553Z,65.22
2023-09-20T18:57:53.748Z,63.94
2023-09-20T19:00:19.958Z,62.78
2023-09-20T19:02:46.262Z,61.76
2023-09-20T19:05:12.524Z,60.80
2023-09-20T19:07:38.710Z,60.59
2023-09-20T19:10:04.882Z,60.00
2023-09-20T19:12:31.073Z,60.20
2023-09-20T19:14:57.282Z,60.03
2023-09-20T19:17:23.537Z,59.71
2023-09-20T19:19:49.709Z,59.82
2023-09-20T19:22:15.861Z,59.25
2023-09-20T19:24:42.025Z,59.68
2023-09-20T19:27:08.205Z,60.33
2023-09-20T19:29:34.388Z,60.32
2023-09-20T19:32:00.616Z,58.90
2023-09-20T19:34:26.813Z,60.34
2023-09-20T19:36:53.013Z,60.05
2023-09-20T19:39:19.173Z,60.31
2023-09-20T19:41:45.382Z,59.65
2023-09-20T19:44:11.572Z,60.22
2023-09-20T19:46:38.247Z,60.22
2023-09-20T19:49:04.438Z,59.79
2023-09-20T19:51:30.607Z,60.56
2023-09-20T19:53:56.873Z,60.04
2023-09-20T19:56:23.121Z,60.17
2023-09-20T19:58:49.320Z,60.41
2023-09-20T20:01:15.501Z,60.41
2023-09-20T20:03:41.796Z,60.87
2023-09-20T20:06:08.153Z,61.06
2023-09-20T20:08:34.347Z,60.30
2023-09-20T20:11:00.528Z,60.62
2023-09-20T20:13:26.723Z,60.51
2023-09-20T20:15:52.941Z,60.52
2023-09-20T20:18:19.225Z,59.80
2023-09-20T20:20:45.433Z,59.70
2023-09-20T20:23:11.693Z,60.10
2023-09-20T20:25:37.951Z,60.98
2023-09-20T20:28:04.115Z,60.80
2023-09-20T20:30:30.275Z,60.46
2023-09-20T20:32:56.553Z,61.05
2023-09-20T20:35:23.531Z,61.04
2023-09-20T20:37:49.698Z,61.12
2023-09-20T20:40:15.910Z,60.90
2023-09-20T20:42:42.117Z,61.22
2023-09-20T20:45:08.318Z,61.11
2023-09-20T20:47:34.523Z,61.81
2023-09-20T20:50:00.746Z,61.75
2023-09-20T20:52:26.928Z,61.84
2023-09-20T20:54:53.095Z,61.51
2023-09-20T20:57:19.250Z,61.07
2023-09-20T20:59:45.441Z,60.47
2023-09-20T21:02:11.670Z,62.50
2023-09-20T21:04:37.856Z,62.84
2023-09-20T21:07:04.348Z,62.49
2023-09-20T21:09:30.587Z,61.80
2023-09-20T21:11:56.943Z,62.10
2023-09-20T21:14:23.163Z,61.72
2023-09-20T21:16:49.317Z,62.10
2023-09-20T21:19:15.606Z,61.82
2023-09-20T21:21:41.861Z,61.51
2023-09-20T21:24:08.152Z,61.55
2023-09-20T21:26:34.410Z,61.75
2023-09-20T21:29:00.633Z,62.10
2023-09-20T21:31:26.823Z,61.64
2023-09-20T21:33:53.180Z,62.81
2023-09-20T21:36:19.425Z,62.62
2023-09-20T21:38:45.855Z,62.31
2023-09-20T21:41:12.245Z,62.65
2023-09-20T21:43:38.393Z,64.31
2023-09-20T21:46:04.560Z,63.21
2023-09-20T21:48:30.811Z,62.85
2023-09-20T21:50:57.076Z,62.54
2023-09-20T21:53:23.285Z,62.92
2023-09-20T21:55:49.481Z,62.45
2023-09-20T21:58:15.628Z,62.61
2023-09-20T22:00:42.108Z,62.12
2023-09-20T22:03:08.379Z,62.38
2023-09-20T22:05:34.764Z,61.74
2023-09-20T22:08:01.073Z,61.94
2023-09-20T22:10:27.275Z,62.21
2023-09-20T22:12:53.459Z,63.27
2023-09-20T22:15:19.629Z,62.63
2023-09-20T22:17:45.938Z,63.61
2023-09-20T22:20:12.196Z,63.26
2023-09-20T22:22:38.414Z,62.90
2023-09-20T22:25:04.582Z,62.58
2023-09-20T22:27:30.860Z,62.62
2023-09-20T22:29:57.042Z,62.53
2023-09-20T22:32:23.247Z,62.57
2023-09-20T22:34:49.438Z,62.45
2023-09-20T22:37:15.590Z,62.33
2023-09-20T22:39:41.777Z,63.21
2023-09-20T22:42:07.971Z,63.12
2023-09-20T22:44:34.264Z,62.06
2023-09-20T22:47:00.499Z,63.14
2023-09-20T22:49:26.772Z,63.75
2023-09-20T22:51:52.957Z,64.09
2023-09-20T22:54:19.112Z,63.71
2023-09-20T22:56:45.333Z,63.90
2023-09-20T22:59:11.539Z,64.23
2023-09-20T23:01:37.702Z,63.91
2023-09-20T23:04:04.009Z,63.77
2023-09-20T23:06:30.283Z,63.40
2023-09-20T23:08:56.477Z,63.82
2023-09-20T23:11:22.712Z,63.79
2023-09-20T23:13:48.876Z,63.63
2023-09-20T23:16:15.082Z,63.22
2023-09-20T23:18:41.500Z,63.15
2023-09-20T23:21:07.859Z,62.61
2023-09-20T23:23:34.096Z,63.55
2023-09-20T23:26:00.431Z,63.23
2023-09-20T23:28:26.663Z,63.21
2023-09-20T23:30:55.633Z,64.67
2023-09-20T23:33:23.085Z,64.22
2023-09-20T23:35:49.390Z,64.95
2023-09-20T23:38:15.678Z,64.62
2023-09-20T23:40:41.993Z,65.16
2023-09-20T23:43:08.151Z,65.10
2023-09-20T23:45:34.328Z,64.64
2023-09-20T23:48:00.632Z,63.41
2023-09-20T23:50:26.913Z,63.34
2023-09-20T23:52:53.067Z,63.64
2023-09-20T23:55:19.234Z,62.72
2023-09-20T23:57:45.380Z,62.39
